createdAt,value
2023-12-26T00:02:11.174Z,10.42
2023-12-26T00:07:14.390Z,10.39
2023-12-26T00:12:19.192Z,10.38
2023-12-26T00:17:22.660Z,10.32
2023-12-26T00:22:25.863Z,10.28
2023-12-26T00:27:30.503Z,10.25
2023-12-26T00:32:34.475Z,10.26
2023-12-26T00:37:41.284Z,10.28
2023-12-26T00:42:56.024Z,10.21
2023-12-26T00:48:00.540Z,10.28
2023-12-26T00:53:05.027Z,10.26
2023-12-26T00:58:09.685Z,10.20
2023-12-26T01:03:13.761Z,10.31
2023-12-26T01:08:18.037Z,10.26
2023-12-26T01:13:22.585Z,10.31
2023-12-26T01:18:26.606Z,10.30
2023-12-26T01:23:29.950Z,10.29
2023-12-26T01:28:34.377Z,10.26
2023-12-26T01:33:37.630Z,10.28
2023-12-26T01:38:40.983Z,10.35
2023-12-26T01:43:45.482Z,10.31
2023-12-26T01:48:52.559Z,10.31
2023-12-26T01:53:56.195Z,10.30
2023-12-26T01:59:01.648Z,10.35
2023-12-26T02:04:05.317Z,10.35
2023-12-26T02:09:11.855Z,10.39
2023-12-26T02:14:16.678Z,10.42
2023-12-26T02:19:20.374Z,10.41
2023-12-26T02:24:25.085Z,10.48
2023-12-26T02:29:29.500Z,10.42
2023-12-26T02:34:33.137Z,10.43
2023-12-26T02:39:38.130Z,10.43
2023-12-26T02:44:41.385Z,10.35
2023-12-26T02:49:44.955Z,10.13
2023-12-26T02:54:49.863Z,10.23
2023-12-26T02:59:53.060Z,10.20
2023-12-26T03:04:56.236Z,10.07
2023-12-26T03:10:04.972Z,10.02
2023-12-26T03:15:09.324Z,9.78
2023-12-26T03:20:13.381Z,9.99
2023-12-26T03:25:18.116Z,10.21
2023-12-26T03:30:21.601Z,9.96
2023-12-26T03:35:24.934Z,10.11
2023-12-26T03:40:29.513Z,10.06
2023-12-26T03:45:33.835Z,10.07
2023-12-26T03:50:37.267Z,10.08
2023-12-26T03:55:42.980Z,10.04
2023-12-26T04:00:46.474Z,9.86
2023-12-26T04:05:50.139Z,9.78
2023-12-26T04:10:55.045Z,9.87
2023-12-26T04:15:58.424Z,9.75
2023-12-26T04:21:02.175Z,9.68
2023-12-26T04:26:09.605Z,9.60
2023-12-26T04:31:13.140Z,9.40
2023-12-26T04:36:16.547Z,9.35
2023-12-26T04:41:21.445Z,9.23
2023-12-26T04:46:25.093Z,9.00
2023-12-26T04:51:30.967Z,8.92
2023-12-26T04:56:37.574Z,8.89
2023-12-26T05:01:43.691Z,8.79
2023-12-26T05:06:47.550Z,8.71
2023-12-26T05:11:53.113Z,8.66
2023-12-26T05:16:56.432Z,8.67
2023-12-26T05:21:59.722Z,8.65
2023-12-26T05:27:07.428Z,8.63
2023-12-26T05:32:10.854Z,8.71
2023-12-26T05:37:14.285Z,8.73
2023-12-26T05:42:19.621Z,8.76
2023-12-26T05:47:23.094Z,8.63
2023-12-26T05:52:26.481Z,8.54
2023-12-26T05:57:31.234Z,8.30
2023-12-26T06:02:35.766Z,8.06
2023-12-26T06:07:41.978Z,8.06
2023-12-26T06:12:46.778Z,7.90
2023-12-26T06:17:50.341Z,7.85
2023-12-26T06:22:53.947Z,7.82
2023-12-26T06:27:58.862Z,7.84
2023-12-26T06:33:02.698Z,7.84
2023-12-26T06:38:13.194Z,7.86
2023-12-26T06:43:17.886Z,7.89
2023-12-26T06:48:21.468Z,7.94
2023-12-26T06:53:24.945Z,7.93
2023-12-26T06:58:29.721Z,7.90
2023-12-26T07:03:33.392Z,7.87
2023-12-26T07:08:38.487Z,7.85
2023-12-26T07:13:42.995Z,7.68
2023-12-26T07:18:46.546Z,7.78
2023-12-26T07:23:49.830Z,7.79
2023-12-26T07:28:54.639Z,7.58
2023-12-26T07:34:00.592Z,7.64
2023-12-26T07:39:04.319Z,7.71
2023-12-26T07:44:11.636Z,7.80
2023-12-26T07:49:15.688Z,8.09
2023-12-26T07:54:19.020Z,8.15
2023-12-26T07:59:23.548Z,8.25
2023-12-26T08:04:26.822Z,8.24
2023-12-26T08:09:30.175Z,8.29
2023-12-26T08:14:34.854Z,8.21
2023-12-26T08:19:39.141Z,8.10
2023-12-26T08:24:42.440Z,8.17
2023-12-26T08:29:47.112Z,8.12
2023-12-26T08:34:50.375Z,8.05
2023-12-26T08:39:53.546Z,8.01
2023-12-26T08:44:58.248Z,7.95
2023-12-26T08:50:03.723Z,7.89
2023-12-26T08:55:07.797Z,7.91
2023-12-26T09:00:15.500Z,7.96
2023-12-26T09:05:18.817Z,8.00
2023-12-26T09:10:21.991Z,7.92
2023-12-26T09:15:26.617Z,7.95
2023-12-26T09:20:30.302Z,7.83
2023-12-26T09:25:33.633Z,7.82
2023-12-26T09:30:38.997Z,7.86
2023-12-26T09:35:43.620Z,8.04
2023-12-26T09:40:48.561Z,8.19
2023-12-26T09:45:53.281Z,8.17
2023-12-26T09:50:58.369Z,8.39
2023-12-26T09:56:02.689Z,8.46
2023-12-26T10:01:08.071Z,8.62
2023-12-26T10:06:11.339Z,8.71
2023-12-26T10:11:15.631Z,8.72
2023-12-26T10:16:20.509Z,8.89
2023-12-26T10:21:23.864Z,8.99
2023-12-26T10:26:27.121Z,9.14
2023-12-26T10:31:34.334Z,9.26
2023-12-26T10:36:43.522Z,9.23
2023-12-26T10:41:48.131Z,9.42
2023-12-26T10:46:53.292Z,9.44
2023-12-26T10:52:00.587Z,9.60
2023-12-26T10:57:04.078Z,9.72
2023-12-26T11:03:02.055Z,10.08
2023-12-26T11:09:19.195Z,10.48
2023-12-26T11:15:36.262Z,10.87
2023-12-26T11:21:52.749Z,10.77
2023-12-26T11:28:09.798Z,10.60
2023-12-26T11:34:28.460Z,10.41
2023-12-26T11:40:45.202Z,10.31
2023-12-26T11:47:01.551Z,10.21
2023-12-26T11:53:17.955Z,10.08
2023-12-26T11:59:35.077Z,10.04
2023-12-26T12:05:51.594Z,10.02
2023-12-26T12:12:08.842Z,9.98
2023-12-26T12:18:26.056Z,9.97
2023-12-26T12:24:43.007Z,10.00
2023-12-26T12:30:59.584Z,9.89
2023-12-26T12:37:16.501Z,9.79
2023-12-26T12:43:32.985Z,9.71
2023-12-26T12:49:49.537Z,9.66
2023-12-26T12:56:06.175Z,9.65
2023-12-26T13:02:22.936Z,9.58
2023-12-26T13:08:39.865Z,9.60
2023-12-26T13:14:56.599Z,9.48
2023-12-26T13:21:13.057Z,9.46
2023-12-26T13:27:29.631Z,9.49
2023-12-26T13:33:46.822Z,9.39
2023-12-26T13:40:03.969Z,9.34
2023-12-26T13:46:20.288Z,9.26
2023-12-26T13:51:45.633Z,9.14
2023-12-26T13:56:49.483Z,9.06
2023-12-26T14:01:52.606Z,9.05
2023-12-26T14:06:57.519Z,9.05
2023-12-26T14:12:00.814Z,9.08
2023-12-26T14:17:03.997Z,9.09
2023-12-26T14:22:08.944Z,9.04
2023-12-26T14:27:12.038Z,9.05
2023-12-26T14:32:15.256Z,8.99
2023-12-26T14:37:39.104Z,8.98
2023-12-26T14:42:42.674Z,8.99
2023-12-26T14:47:45.958Z,8.98
2023-12-26T14:52:50.484Z,8.91
2023-12-26T14:57:53.591Z,8.93
2023-12-26T15:02:57.175Z,8.90
2023-12-26T15:08:02.403Z,8.85
2023-12-26T15:13:06.194Z,8.79
2023-12-26T15:18:09.627Z,8.84
2023-12-26T15:23:14.402Z,8.80
2023-12-26T15:28:17.813Z,8.76
2023-12-26T15:33:22.407Z,8.71
2023-12-26T15:38:27.274Z,8.63
2023-12-26T15:43:30.385Z,8.70
2023-12-26T15:48:33.670Z,8.62
2023-12-26T15:53:38.321Z,8.61
2023-12-26T15:58:41.531Z,8.67
2023-12-26T16:03:45.165Z,8.65
2023-12-26T16:08:50.221Z,8.62
2023-12-26T16:13:54.018Z,8.58
2023-12-26T16:18:57.786Z,8.60
2023-12-26T16:24:02.858Z,8.55
2023-12-26T16:29:06.300Z,8.53
2023-12-26T16:34:09.716Z,8.50
2023-12-26T16:39:14.838Z,8.57
2023-12-26T16:44:18.107Z,8.55
2023-12-26T16:49:21.661Z,8.53
2023-12-26T16:54:26.623Z,8.52
2023-12-26T16:59:30.939Z,8.53
2023-12-26T17:04:34.412Z,8.49
2023-12-26T17:09:42.765Z,8.44
2023-12-26T17:14:46.077Z,8.29
2023-12-26T17:19:50.390Z,8.18
2023-12-26T17:24:55.279Z,8.11
2023-12-26T17:29:58.479Z,8.06
2023-12-26T17:35:02.195Z,8.03
2023-12-26T17:40:08.094Z,7.84
2023-12-26T17:45:12.507Z,7.66
2023-12-26T17:50:16.100Z,7.60
2023-12-26T17:55:20.851Z,7.49
2023-12-26T18:00:24.133Z,7.35
2023-12-26T18:05:27.357Z,7.36
2023-12-26T18:10:31.946Z,7.28
2023-12-26T18:15:35.313Z,7.17
2023-12-26T18:20:38.651Z,7.01
2023-12-26T18:25:43.456Z,6.94
2023-12-26T18:30:47.885Z,6.81
2023-12-26T18:35:51.251Z,6.72
2023-12-26T18:40:56.498Z,6.64
2023-12-26T18:45:59.697Z,6.56
2023-12-26T18:51:03.363Z,6.49
2023-12-26T18:56:14.768Z,6.39
2023-12-26T19:01:18.071Z,6.29
2023-12-26T19:06:21.424Z,6.19
2023-12-26T19:11:26.126Z,6.15
2023-12-26T19:16:29.563Z,6.07
2023-12-26T19:21:32.991Z,6.07
2023-12-26T19:26:37.624Z,6.03
2023-12-26T19:31:41.294Z,5.94
2023-12-26T19:36:47.023Z,5.98
2023-12-26T19:41:51.584Z,5.92
2023-12-26T19:46:54.740Z,5.89
2023-12-26T19:51:57.918Z,5.89
2023-12-26T19:57:02.690Z,5.90
2023-12-26T20:02:07.352Z,5.82
2023-12-26T20:07:10.595Z,5.72
2023-12-26T20:12:15.269Z,5.72
2023-12-26T20:17:18.518Z,5.71
2023-12-26T20:22:21.844Z,5.71
2023-12-26T20:27:26.389Z,5.70
2023-12-26T20:32:29.543Z,5.66
2023-12-26T20:37:32.801Z,5.59
2023-12-26T20:42:38.220Z,5.66
2023-12-26T20:47:41.599Z,5.62
2023-12-26T20:52:45.084Z,5.53
2023-12-26T20:57:49.632Z,5.45
2023-12-26T21:02:52.952Z,5.32
2023-12-26T21:07:56.313Z,5.26
2023-12-26T21:13:02.441Z,5.14
2023-12-26T21:18:07.322Z,5.00
2023-12-26T21:23:10.593Z,5.03
2023-12-26T21:28:15.550Z,4.97
2023-12-26T21:33:18.893Z,4.91
2023-12-26T21:38:22.223Z,4.84
2023-12-26T21:43:26.854Z,4.77
2023-12-26T21:48:30.525Z,4.72
2023-12-26T21:53:34.014Z,4.68
2023-12-26T21:58:38.925Z,4.65
2023-12-26T22:03:43.562Z,4.63
2023-12-26T22:08:46.801Z,4.69
2023-12-26T22:13:54.200Z,4.73
2023-12-26T22:18:58.334Z,4.69
2023-12-26T22:24:03.161Z,4.76
2023-12-26T22:29:08.442Z,4.73
2023-12-26T22:34:13.456Z,4.73
2023-12-26T22:39:16.822Z,4.77
2023-12-26T22:44:21.722Z,4.78
2023-12-26T22:49:25.033Z,4.77
2023-12-26T22:54:28.325Z,4.73
2023-12-26T22:59:32.964Z,4.70
2023-12-26T23:04:39.685Z,4.73
2023-12-26T23:09:42.742Z,4.77
2023-12-26T23:14:47.578Z,4.80
2023-12-26T23:19:50.866Z,4.78
2023-12-26T23:24:54.206Z,4.75
2023-12-26T23:29:58.805Z,4.65
2023-12-26T23:35:02.218Z,4.60
2023-12-26T23:40:06.106Z,4.52
2023-12-26T23:45:10.933Z,4.47
2023-12-26T23:50:13.994Z,4.38
2023-12-26T23:55:17.174Z,4.17
